< Cyclone 199305 1993 Season Cyclone 199307 >
Cyclone 199306 (ROGER)
General InformationTrack Information on Google MapsDetailed Wind InformationList of All Images || ResourceGoogle EarthGE AnimationAtom FeedGeoJSON
Detalied Best Track (Time Zone = UTC)
Year Month Day Hour Lat. Long. Pressure (hPa) Wind (kt) Class Image Chart
1993 3 12 00 -9.9 157.0 998 35 3 Image --
1993 3 12 06 -10.6 156.6 998 35 3 Image --
1993 3 12 12 -11.3 156.2 995 35 3 Image --
1993 3 12 18 -11.9 155.9 990 41 3 Image --
1993 3 13 00 -12.7 155.6 990 41 3 Image --
1993 3 13 06 -13.5 155.4 990 41 3 Image --
1993 3 13 12 -14.2 155.4 990 41 3 Image --
1993 3 13 18 -14.8 155.4 988 41 3 Image --
1993 3 14 00 -15.8 155.7 985 51 4 Image --
1993 3 14 06 -16.4 155.9 985 51 4 Image --
1993 3 14 12 -16.8 156.0 985 51 4 Image --
1993 3 14 18 -17.3 156.0 980 51 4 Image --
1993 3 15 00 -18.2 156.0 980 60 4 Image --
1993 3 15 06 -19.2 155.9 980 60 4 Image --
1993 3 15 12 -20.4 155.7 980 54 4 Image --
1993 3 15 18 -21.4 155.6 980 54 4 Image --
1993 3 16 00 -22.1 155.6 980 54 4 Image --
1993 3 16 06 -22.7 155.6 985 41 3 Image --
1993 3 16 12 -23.2 155.6 985 41 3 Image --
1993 3 16 18 -23.6 155.6 985 45 3 Image --
1993 3 17 00 -23.9 155.9 985 51 4 Image --
1993 3 17 06 -24.0 156.1 985 51 4 Image --
1993 3 17 12 -24.0 156.4 985 45 3 Image --
1993 3 17 18 -23.6 156.8 985 45 3 Image --
1993 3 18 00 -23.1 157.0 985 45 3 Image --
1993 3 18 06 -22.8 157.2 985 45 3 Image --
1993 3 18 12 -22.5 157.5 985 45 3 Image --
1993 3 18 18 -22.1 157.9 985 51 4 Image --
1993 3 19 00 -21.7 158.3 985 51 4 Image --
1993 3 19 06 -21.3 158.7 985 51 4 Image --
1993 3 19 12 -20.8 158.9 990 45 3 Image --
1993 3 19 18 -20.4 159.0 990 45 3 Image --
1993 3 20 00 -20.0 159.1 990 45 3 Image --
1993 3 20 06 -19.8 159.3 990 51 4 Image --
1993 3 20 12 -20.0 159.7 990 51 4 Image --
1993 3 20 18 -20.5 160.5 990 51 4 Image --
1993 3 21 00 -21.0 161.7 990 45 3 Image --
< Cyclone 199305 1993 Season Cyclone 199307 >

Help